Terminal Aerodrome Forecast
Issued by NWS

Home | Current Version | Previous Version | Text Only | Print | Product List | Glossary On
Versions: 1 2 3 4 5 6 7 8 9 10 11 12
000
FTUS41 KCAR 041120
TAFPQI
TAF
KPQI 041120Z 0412/0512 18004KT P6SM OVC110
     FM041300 20007KT P6SM FEW250
     FM041800 22015G25KT P6SM SCT250
     FM050200 25008KT P6SM VCSH SCT060 BKN080 OVC200
      AMD LTD TO CLD VIS AND WIND=

USA.gov is the U.S. government's official web portal to all federal, state and local government web resources and services.